Aérodrome :
LOGIN :

S'inscrire | Disclaimer

   EN    FR    IT 

 










Légende :    VFR   VFR Marginal   IFR   IFR Intensif   IFR Très Intensif
Visi : 
Plafond : 
>= 8 km
>= 3000ft
5 à 8 km
1000 à 3000 ft
1500m à 5 km
500 à 1000 ft
800 à 1500m
200 à 500 ft
< 800m
< 200 ft
Symboles :   Orages  Brouillard  Fortes neiges  Fortes précipitations  Vent > 20 kt
SIGMETs :   Divers  Orages  Givrage  Turbulence  Onde Orograph.  Cendres Volcan.







- Altitude de l'aérodrome : 84 ft
- Voir les cartes d'approche


LFBC - Cazaux

DERNIER METAR :
  • 200830Z AUTO VRB01KT 9999 OVC049 06/06 Q1012

METARs EXPIRÉS :
  • 200800Z AUTO 10003KT 9999 FEW004 BKN041 OVC048 06/06 Q1011
  • 200730Z AUTO 08003KT 9999 FEW004 OVC036 06/06 Q1011
  • 200700Z AUTO 00000KT 9999 FEW004/// OVC039/// ///TCU 07/06 Q1011
  • 200630Z AUTO 09003KT 9999 -RA FEW034/// OVC042/// ///CB 07/07 Q1010
  • 200600Z AUTO 34005KT 6000 RA FEW033/// BKN040/// BKN048/// ///CB 07/07 Q1010

Prévision TAF périmée.
Pas de NOTAMs connus pour ce terrain.



MET'MAP, la Météo Aéronautique d'un coup d'oeil ! - Copyright ORBIFLY Décembre 2007 - Disclaimer

ORBIFLY MET'MAP TEAM :

Programmation & Développement : Alexandra Zaïnal
Conception & Développement : Baudouin d'Aumeries
Co-Programmation & Développement : Marc-Olivier Méhu
Soutien technique & logistique : Manuel Goepfert

Contact : metmap@orbifly.com




SOURCES & CREDITS :

   NOAA